createdAt,value
2019-04-28T02:43:30.711Z,5.10
2019-04-28T04:55:14.884Z,4.90
2019-04-28T04:57:44.027Z,5.00
2019-04-28T05:00:30.604Z,4.90
2019-04-28T05:06:09.683Z,5.00
2019-04-28T05:08:45.050Z,5.10
2019-04-28T05:11:21.816Z,5.30
2019-04-28T05:17:20.281Z,5.40
2019-04-28T05:20:07.103Z,5.50
2019-04-28T05:33:46.470Z,5.60
2019-04-28T05:48:11.296Z,5.90
2019-04-28T05:50:41.431Z,6.00
2019-04-28T05:53:19.299Z,6.10
2019-04-28T05:55:50.252Z,6.10
2019-04-28T05:58:20.804Z,6.10
2019-04-28T06:01:00.446Z,6.20
2019-04-28T06:03:30.640Z,6.20
2019-04-28T06:06:00.056Z,6.30
2019-04-28T06:08:40.766Z,6.50
2019-04-28T06:11:27.290Z,6.70
2019-04-28T06:13:56.281Z,6.90
2019-04-28T06:16:24.868Z,7.20
2019-04-28T06:18:53.750Z,7.70
2019-04-28T06:21:22.588Z,8.20
2019-04-28T06:23:51.832Z,8.40
2019-04-28T06:26:21.405Z,8.40
2019-04-28T06:28:51.140Z,8.40
2019-04-28T06:31:20.201Z,9.00
2019-04-28T06:33:49.225Z,10.40
2019-04-28T06:36:17.778Z,11.80
2019-04-28T06:38:46.725Z,13.70
2019-04-28T06:41:15.555Z,15.70
2019-04-28T06:43:44.386Z,16.10
2019-04-28T06:46:12.917Z,15.70
2019-04-28T06:48:42.403Z,14.40
2019-04-28T06:51:12.871Z,13.90
2019-04-28T06:53:41.628Z,12.80
2019-04-28T06:56:10.463Z,11.60
2019-04-28T06:58:59.242Z,10.70
2019-04-28T07:01:28.337Z,10.10
2019-04-28T07:03:56.961Z,10.40
2019-04-28T07:06:26.072Z,12.80
2019-04-28T07:08:55.006Z,14.50
2019-04-28T07:23:56.186Z,12.80
2019-04-28T07:26:30.574Z,13.00
2019-04-28T07:29:03.424Z,13.60
2019-04-28T10:10:50.481Z,13.30
2019-04-28T10:56:11.851Z,14.80
2019-04-28T10:58:42.704Z,15.20
2019-04-28T11:01:11.406Z,15.60
2019-04-28T11:03:44.978Z,16.00
2019-04-28T11:09:30.142Z,16.00
2019-04-28T11:24:27.352Z,16.20
2019-04-28T11:26:56.049Z,16.30
2019-04-28T11:29:24.478Z,16.60
2019-04-28T11:31:53.199Z,17.10
2019-04-28T11:34:35.234Z,17.20
2019-04-28T11:37:03.958Z,16.90
2019-04-28T11:39:34.345Z,16.40
2019-04-28T12:40:13.778Z,14.50
2019-04-28T12:42:42.466Z,14.80
2019-04-28T12:52:32.714Z,16.10
2019-04-28T12:55:01.268Z,16.00
2019-04-28T12:57:30.012Z,16.30
2019-04-28T13:00:02.677Z,16.70
2019-04-28T13:02:35.447Z,17.20
2019-04-28T13:05:09.801Z,17.50
2019-04-28T13:07:38.858Z,18.00
2019-04-28T13:10:07.880Z,18.70
2019-04-28T13:12:36.641Z,19.20
2019-04-28T13:15:06.568Z,19.60
2019-04-28T13:17:35.265Z,19.60
2019-04-28T13:20:04.413Z,19.00
2019-04-28T13:22:33.105Z,18.90
2019-04-28T13:25:01.807Z,18.70
2019-04-28T13:27:30.513Z,18.90
2019-04-28T13:29:59.192Z,19.00
2019-04-28T13:32:27.994Z,18.60
2019-04-28T13:34:56.757Z,18.10
2019-04-28T13:37:25.446Z,17.90
2019-04-28T13:40:07.625Z,17.90
2019-04-28T13:42:36.629Z,17.60
2019-04-28T13:45:09.692Z,17.00
2019-04-28T13:48:02.955Z,16.60
2019-04-28T13:50:35.837Z,16.10
2019-04-28T13:53:05.662Z,15.80
2019-04-28T13:55:48.527Z,15.50
2019-04-28T14:01:29.334Z,15.20
2019-04-28T14:04:02.086Z,15.00
2019-04-28T14:11:47.993Z,14.60
2019-04-28T14:14:16.419Z,14.50
2019-04-28T14:16:44.835Z,14.50
2019-04-28T14:19:13.630Z,14.50
2019-04-28T14:21:42.404Z,14.40
2019-04-28T14:24:11.330Z,14.30
2019-04-28T14:26:40.278Z,14.20
2019-04-28T14:29:09.012Z,14.10
2019-04-28T14:31:37.465Z,14.10
2019-04-28T14:34:05.938Z,14.10
2019-04-28T14:36:42.016Z,14.10
2019-04-28T14:39:07.316Z,14.10
2019-04-28T14:41:35.763Z,14.10
2019-04-28T14:44:04.630Z,14.00
2019-04-28T14:46:33.145Z,14.10
2019-04-28T14:49:01.930Z,14.00
2019-04-28T14:51:30.626Z,14.10
2019-04-28T14:53:59.339Z,14.20
2019-04-28T14:56:27.778Z,14.30
2019-04-28T14:58:56.470Z,14.20
2019-04-28T15:01:26.878Z,14.30
2019-04-28T15:04:21.295Z,14.30
2019-04-28T15:51:53.778Z,14.10
2019-04-28T15:54:22.260Z,13.90
2019-04-28T15:56:50.685Z,13.80
2019-04-28T16:06:03.627Z,13.60
2019-04-28T16:08:41.100Z,13.50
2019-04-28T16:11:09.819Z,13.40
2019-04-28T16:14:27.638Z,13.30
2019-04-28T19:18:41.209Z,7.20
